ICE32A BIKF-BIAR
Flight info
| Callsign | ICE32A |
|---|---|
| Flight time | N/A |
| Altitude | 17000 |
| Route | LUTER3C LUTER DCT ASKUR |
| Aircraft | A21N/M-SDE2E3FGHIRWXY/LB1 |
Departure
| Time | 2026-04-29 22:55 |
|---|---|
| Airport | Keflavik International Airport (BIKF) |
Arrival
| Time | N/A |
|---|---|
| Airport | Akureyri International Airport (BIAR) |
| Time | Latitude | Longitude | Altitude | Speed | Heading |
|---|---|---|---|---|---|
| 2026-04-29 22:40 | 63.99380 | -22.62193 | 143 ft | 0 kts | 238° |
| 2026-04-29 22:47 | 63.99383 | -22.62182 | 143 ft | 4 kts | 238° |
| 2026-04-29 22:47 | 63.99398 | -22.62131 | 145 ft | 4 kts | 232° |
| 2026-04-29 22:48 | 63.99415 | -22.62085 | 145 ft | 4 kts | 219° |
| 2026-04-29 22:48 | 63.99436 | -22.62058 | 145 ft | 4 kts | 175° |
| 2026-04-29 22:48 | 63.99445 | -22.62061 | 145 ft | 0 kts | 150° |
| 2026-04-29 22:50 | 63.99444 | -22.62060 | 145 ft | 2 kts | 150° |
| 2026-04-29 22:50 | 63.99427 | -22.62037 | 145 ft | 3 kts | 150° |
| 2026-04-29 22:50 | 63.99404 | -22.62007 | 145 ft | 4 kts | 150° |
| 2026-04-29 22:51 | 63.99375 | -22.61989 | 145 ft | 5 kts | 173° |
| 2026-04-29 22:51 | 63.99341 | -22.61986 | 145 ft | 6 kts | 180° |
| 2026-04-29 22:51 | 63.99217 | -22.61986 | 145 ft | 11 kts | 180° |
| 2026-04-29 22:52 | 63.99192 | -22.61981 | 144 ft | 5 kts | 162° |
| 2026-04-29 22:52 | 63.99173 | -22.61889 | 146 ft | 9 kts | 89° |
| 2026-04-29 22:52 | 63.99173 | -22.61717 | 149 ft | 15 kts | 90° |
| 2026-04-29 22:52 | 63.99173 | -22.61501 | 154 ft | 13 kts | 90° |
| 2026-04-29 22:53 | 63.99173 | -22.61267 | 159 ft | 14 kts | 90° |
| 2026-04-29 22:53 | 63.99173 | -22.61067 | 163 ft | 11 kts | 90° |
| 2026-04-29 22:53 | 63.99173 | -22.60918 | 166 ft | 8 kts | 90° |
| 2026-04-29 22:53 | 63.99173 | -22.60802 | 170 ft | 8 kts | 90° |
| 2026-04-29 22:54 | 63.99173 | -22.60678 | 174 ft | 8 kts | 90° |
| 2026-04-29 22:54 | 63.99165 | -22.60560 | 178 ft | 8 kts | 120° |
| 2026-04-29 22:54 | 63.99154 | -22.60536 | 179 ft | 0 kts | 154° |
| 2026-04-29 22:54 | 63.99133 | -22.60537 | 179 ft | 15 kts | 179° |
| 2026-04-29 22:55 | 63.98807 | -22.60557 | 177 ft | 79 kts | 180° |
| 2026-04-29 22:55 | 63.98030 | -22.60571 | 182 ft | 141 kts | 180° |
| 2026-04-29 22:55 | 63.96986 | -22.60477 | 485 ft | 158 kts | 182° |
| 2026-04-29 22:55 | 63.95851 | -22.60084 | 982 ft | 173 kts | 172° |
| 2026-04-29 22:56 | 63.94747 | -22.58705 | 1555 ft | 192 kts | 143° |
| 2026-04-29 22:56 | 63.94022 | -22.56024 | 2205 ft | 207 kts | 117° |
| 2026-04-29 22:56 | 63.93500 | -22.52882 | 2704 ft | 221 kts | 117° |
| 2026-04-29 22:56 | 63.92859 | -22.49538 | 3292 ft | 234 kts | 118° |
| 2026-04-29 22:57 | 63.92211 | -22.46133 | 4070 ft | 239 kts | 117° |
| 2026-04-29 22:57 | 63.91549 | -22.42552 | 4743 ft | 255 kts | 116° |
| 2026-04-29 22:57 | 63.90857 | -22.38725 | 5461 ft | 264 kts | 115° |
| 2026-04-29 22:57 | 63.90129 | -22.34629 | 6355 ft | 272 kts | 115° |
| 2026-04-29 22:58 | 63.89414 | -22.30606 | 7156 ft | 279 kts | 115° |
| 2026-04-29 22:58 | 63.88691 | -22.26317 | 7600 ft | 303 kts | 110° |
| 2026-04-29 22:58 | 63.87935 | -22.21623 | 7924 ft | 328 kts | 111° |
| 2026-04-29 22:58 | 63.87104 | -22.16685 | 8601 ft | 340 kts | 112° |
| 2026-04-29 22:59 | 63.86220 | -22.11656 | 9491 ft | 346 kts | 114° |
| 2026-04-29 22:59 | 63.85304 | -22.06552 | 10340 ft | 353 kts | 114° |
| 2026-04-29 22:59 | 63.84276 | -22.01505 | 11269 ft | 353 kts | 124° |
| 2026-04-29 22:59 | 63.83330 | -21.96298 | 12231 ft | 368 kts | 108° |
| 2026-04-29 23:00 | 63.83275 | -21.90366 | 13126 ft | 389 kts | 84° |
| 2026-04-29 23:00 | 63.84027 | -21.84382 | 13958 ft | 399 kts | 76° |
| 2026-04-29 23:00 | 63.84869 | -21.78336 | 14680 ft | 405 kts | 79° |
| 2026-04-29 23:00 | 63.85597 | -21.72120 | 15394 ft | 409 kts | 82° |
| 2026-04-29 23:01 | 63.86232 | -21.65695 | 16150 ft | 413 kts | 84° |
| 2026-04-29 23:01 | 63.86610 | -21.61443 | 16581 ft | 418 kts | 85° |
| 2026-04-29 23:01 | 63.87161 | -21.54756 | 16917 ft | 434 kts | 86° |
| 2026-04-29 23:01 | 63.87695 | -21.47844 | 16955 ft | 455 kts | 86° |
| 2026-04-29 23:02 | 63.88451 | -21.40650 | 16961 ft | 485 kts | 75° |
| 2026-04-29 23:02 | 63.89835 | -21.33671 | 16965 ft | 476 kts | 67° |
| 2026-04-29 23:02 | 63.91339 | -21.27157 | 16966 ft | 458 kts | 66° |
| 2026-04-29 23:02 | 63.92814 | -21.20844 | 16962 ft | 446 kts | 66° |
| 2026-04-29 23:03 | 63.94249 | -21.14643 | 16968 ft | 441 kts | 67° |
| 2026-04-29 23:03 | 63.95684 | -21.08372 | 16964 ft | 441 kts | 67° |
| 2026-04-29 23:03 | 63.97097 | -21.02155 | 16965 ft | 442 kts | 67° |
| 2026-04-29 23:03 | 63.98516 | -20.95871 | 16968 ft | 451 kts | 67° |
| 2026-04-29 23:04 | 63.99957 | -20.89473 | 16970 ft | 453 kts | 67° |
| 2026-04-29 23:04 | 64.01394 | -20.83077 | 16957 ft | 454 kts | 67° |
| 2026-04-29 23:04 | 64.02853 | -20.76558 | 16981 ft | 456 kts | 67° |
| 2026-04-29 23:04 | 64.04296 | -20.70091 | 16966 ft | 458 kts | 67° |
| 2026-04-29 23:05 | 64.05738 | -20.63608 | 16970 ft | 458 kts | 68° |
| 2026-04-29 23:05 | 64.07178 | -20.57116 | 16979 ft | 458 kts | 68° |
| 2026-04-29 23:05 | 64.08618 | -20.50606 | 16966 ft | 458 kts | 68° |
| 2026-04-29 23:05 | 64.10034 | -20.44183 | 16977 ft | 458 kts | 67° |
| 2026-04-29 23:06 | 64.11774 | -20.37680 | 16978 ft | 464 kts | 53° |
| 2026-04-29 23:06 | 64.14088 | -20.32531 | 16973 ft | 466 kts | 39° |
| 2026-04-29 23:06 | 64.16763 | -20.27963 | 16975 ft | 466 kts | 33° |
| 2026-04-29 23:06 | 64.19489 | -20.23902 | 16982 ft | 466 kts | 31° |
| 2026-04-29 23:07 | 64.22288 | -20.19954 | 17036 ft | 466 kts | 30° |
| 2026-04-29 23:07 | 64.25052 | -20.16077 | 16975 ft | 466 kts | 30° |
| 2026-04-29 23:07 | 64.27813 | -20.12148 | 16982 ft | 467 kts | 31° |
| 2026-04-29 23:07 | 64.30564 | -20.08152 | 16978 ft | 467 kts | 31° |
| 2026-04-29 23:08 | 64.33306 | -20.04099 | 16985 ft | 467 kts | 32° |
| 2026-04-29 23:08 | 64.36027 | -20.00023 | 16976 ft | 467 kts | 32° |
| 2026-04-29 23:08 | 64.38755 | -19.95905 | 16964 ft | 467 kts | 32° |
| 2026-04-29 23:08 | 64.41473 | -19.91784 | 16970 ft | 468 kts | 32° |
| 2026-04-29 23:09 | 64.44192 | -19.87649 | 16972 ft | 468 kts | 32° |
| 2026-04-29 23:09 | 64.46915 | -19.83501 | 16980 ft | 468 kts | 32° |
| 2026-04-29 23:09 | 64.49634 | -19.79350 | 16966 ft | 468 kts | 32° |
| 2026-04-29 23:09 | 64.52353 | -19.75191 | 16971 ft | 468 kts | 32° |
| 2026-04-29 23:10 | 64.55075 | -19.71018 | 16967 ft | 468 kts | 32° |
| 2026-04-29 23:10 | 64.57788 | -19.66852 | 16936 ft | 468 kts | 32° |
| 2026-04-29 23:10 | 64.60516 | -19.62659 | 16970 ft | 470 kts | 32° |
| 2026-04-29 23:10 | 64.63208 | -19.58509 | 16969 ft | 470 kts | 32° |
| 2026-04-29 23:11 | 64.65935 | -19.54290 | 16972 ft | 469 kts | 32° |
| 2026-04-29 23:11 | 64.68652 | -19.50077 | 16966 ft | 469 kts | 32° |
| 2026-04-29 23:11 | 64.71364 | -19.45861 | 16965 ft | 468 kts | 32° |
| 2026-04-29 23:11 | 64.74116 | -19.41574 | 16962 ft | 468 kts | 32° |
| 2026-04-29 23:12 | 64.76794 | -19.37392 | 16957 ft | 468 kts | 32° |
| 2026-04-29 23:12 | 64.79509 | -19.33143 | 16958 ft | 468 kts | 32° |
| 2026-04-29 23:12 | 64.82216 | -19.28893 | 16957 ft | 468 kts | 32° |
| 2026-04-29 23:12 | 64.84931 | -19.24623 | 16958 ft | 468 kts | 32° |
| 2026-04-29 23:13 | 64.87677 | -19.20291 | 16958 ft | 469 kts | 32° |
| 2026-04-29 23:13 | 64.90384 | -19.16011 | 16947 ft | 469 kts | 33° |
| 2026-04-29 23:13 | 64.93089 | -19.11724 | 16902 ft | 469 kts | 32° |
| 2026-04-29 23:13 | 64.95801 | -19.07421 | 16949 ft | 470 kts | 32° |
| 2026-04-29 23:14 | 64.98512 | -19.03106 | 16950 ft | 470 kts | 32° |
| 2026-04-29 23:14 | 65.01226 | -18.98770 | 16949 ft | 471 kts | 32° |
| 2026-04-29 23:14 | 65.03937 | -18.94427 | 16950 ft | 471 kts | 32° |
| 2026-04-29 23:14 | 65.06654 | -18.90068 | 16977 ft | 470 kts | 32° |
| 2026-04-29 23:15 | 65.09367 | -18.85709 | 16935 ft | 469 kts | 33° |
| 2026-04-29 23:15 | 65.12059 | -18.81368 | 16931 ft | 469 kts | 33° |
| 2026-04-29 23:15 | 65.14758 | -18.76999 | 16941 ft | 468 kts | 33° |
| 2026-04-29 23:15 | 65.17454 | -18.72650 | 16939 ft | 468 kts | 30° |
| 2026-04-29 23:16 | 65.20337 | -18.69307 | 16944 ft | 457 kts | 11° |
| 2026-04-29 23:16 | 65.23360 | -18.66828 | 16937 ft | 462 kts | 13° |
| 2026-04-29 23:16 | 65.26388 | -18.64244 | 16925 ft | 462 kts | 12° |
| 2026-04-29 23:16 | 65.29424 | -18.61661 | 16924 ft | 463 kts | 12° |
| 2026-04-29 23:17 | 65.32463 | -18.59067 | 16899 ft | 464 kts | 13° |
| 2026-04-29 23:17 | 65.35510 | -18.56454 | 16933 ft | 465 kts | 13° |
| 2026-04-29 23:17 | 65.38556 | -18.53829 | 16914 ft | 466 kts | 13° |
| 2026-04-29 23:17 | 65.41610 | -18.51186 | 16893 ft | 465 kts | 13° |
| 2026-04-29 23:18 | 65.44609 | -18.48562 | 16857 ft | 459 kts | 17° |
| 2026-04-29 23:18 | 65.47523 | -18.45761 | 16670 ft | 443 kts | 18° |
| 2026-04-29 23:18 | 65.50337 | -18.43051 | 16391 ft | 429 kts | 18° |
| 2026-04-29 23:18 | 65.53095 | -18.40481 | 15859 ft | 422 kts | 17° |
| 2026-04-29 23:19 | 65.55826 | -18.38001 | 15351 ft | 416 kts | 17° |
| 2026-04-29 23:19 | 65.58498 | -18.35604 | 14834 ft | 402 kts | 17° |
| 2026-04-29 23:19 | 65.61073 | -18.33311 | 14318 ft | 386 kts | 16° |
| 2026-04-29 23:19 | 65.63546 | -18.31120 | 13837 ft | 372 kts | 16° |
| 2026-04-29 23:20 | 65.65967 | -18.28976 | 13276 ft | 360 kts | 16° |
| 2026-04-29 23:20 | 65.68256 | -18.26949 | 12678 ft | 351 kts | 16° |
| 2026-04-29 23:20 | 65.70525 | -18.24941 | 12106 ft | 343 kts | 15° |
| 2026-04-29 23:20 | 65.72749 | -18.22967 | 11552 ft | 335 kts | 15° |
| 2026-04-29 23:21 | 65.74949 | -18.21013 | 10980 ft | 330 kts | 15° |
| 2026-04-29 23:21 | 65.77095 | -18.19105 | 10402 ft | 326 kts | 15° |
| 2026-04-29 23:21 | 65.79225 | -18.17209 | 9667 ft | 326 kts | 15° |
| 2026-04-29 23:21 | 65.81345 | -18.15232 | 8844 ft | 327 kts | 23° |
| 2026-04-29 23:22 | 65.83050 | -18.11785 | 8228 ft | 319 kts | 56° |
| 2026-04-29 23:22 | 65.83977 | -18.07072 | 7796 ft | 300 kts | 70° |
| 2026-04-29 23:22 | 65.85063 | -18.02841 | 7370 ft | 292 kts | 44° |
| 2026-04-29 23:22 | 65.86710 | -18.00219 | 6809 ft | 278 kts | 15° |
| 2026-04-29 23:23 | 65.87959 | -17.99598 | 6314 ft | 268 kts | 354° |
| 2026-04-29 23:23 | 65.90141 | -18.01293 | 5906 ft | 234 kts | 310° |
| 2026-04-29 23:23 | 65.90839 | -18.03229 | 5770 ft | 219 kts | 290° |
| 2026-04-29 23:23 | 65.91184 | -18.06629 | 5522 ft | 199 kts | 258° |
| 2026-04-29 23:24 | 65.90660 | -18.09606 | 5304 ft | 190 kts | 226° |
| 2026-04-29 23:24 | 65.89504 | -18.11084 | 5107 ft | 197 kts | 195° |
| 2026-04-29 23:24 | 65.88106 | -18.11060 | 4817 ft | 203 kts | 185° |
| 2026-04-29 23:24 | 65.86672 | -18.10811 | 4526 ft | 203 kts | 184° |
| 2026-04-29 23:25 | 65.85298 | -18.10551 | 4283 ft | 191 kts | 184° |
| 2026-04-29 23:25 | 65.84011 | -18.10368 | 4081 ft | 181 kts | 186° |
| 2026-04-29 23:25 | 65.82774 | -18.10209 | 3904 ft | 173 kts | 185° |
| 2026-04-29 23:25 | 65.81589 | -18.10016 | 3770 ft | 166 kts | 185° |
| 2026-04-29 23:26 | 65.80484 | -18.09797 | 3538 ft | 153 kts | 183° |
| 2026-04-29 23:26 | 65.79487 | -18.09387 | 3279 ft | 142 kts | 181° |
| 2026-04-29 23:26 | 65.78524 | -18.09040 | 3044 ft | 137 kts | 187° |
| 2026-04-29 23:26 | 65.77577 | -18.08963 | 2856 ft | 136 kts | 189° |
| 2026-04-29 23:27 | 65.76629 | -18.08845 | 2642 ft | 136 kts | 186° |
| 2026-04-29 23:27 | 65.75713 | -18.08678 | 2453 ft | 124 kts | 187° |
| 2026-04-29 23:27 | 65.74882 | -18.08638 | 2169 ft | 115 kts | 191° |
| 2026-04-29 23:27 | 65.74075 | -18.08722 | 1815 ft | 120 kts | 182° |
| 2026-04-29 23:28 | 65.73209 | -18.08628 | 1514 ft | 127 kts | 177° |
| 2026-04-29 23:28 | 65.72324 | -18.08353 | 1225 ft | 128 kts | 174° |
| 2026-04-29 23:28 | 65.71446 | -18.08143 | 1009 ft | 124 kts | 182° |
| 2026-04-29 23:28 | 65.70579 | -18.08116 | 776 ft | 126 kts | 184° |
| 2026-04-29 23:29 | 65.69680 | -18.07964 | 552 ft | 132 kts | 176° |
| 2026-04-29 23:29 | 65.68787 | -18.07793 | 369 ft | 127 kts | 180° |
| 2026-04-29 23:29 | 65.67906 | -18.07585 | 212 ft | 128 kts | 177° |
| 2026-04-29 23:29 | 65.67036 | -18.07449 | 93 ft | 124 kts | 179° |
| 2026-04-29 23:30 | 65.66326 | -18.07328 | 20 ft | 54 kts | 175° |
| 2026-04-29 23:30 | 65.66676 | -18.07381 | 26 ft | 117 kts | 178° |
| 2026-04-29 23:30 | 65.66574 | -18.07369 | 21 ft | 104 kts | 177° |